Time,TemperatureF,DewpointF,PressureIn,WindDirection,WindDirectionDegrees,WindSpeedMPH,WindSpeedGustMPH,Humidity,HourlyPrecipIn,Conditions,Clouds,dailyrainin,SoftwareType,DateUTC
2013-02-03 00:04:00,27.5,12.7,30.00,SSW,201,3.9,6.2,53,0.00,n/a,n/a,-99.99,Henriksen +1-Wire,2013-02-03 05:04:00,
2013-02-03 00:06:00,27.5,12.8,30.00,SSW,198,3.8,6.2,53,0.00,n/a,n/a,-99.99,Henriksen +1-Wire,2013-02-03 05:06:00,
2013-02-03 00:10:00,27.4,12.8,30.00,SSW,196,2.6,6.2,53,0.00,n/a,n/a,-99.99,Henriksen +1-Wire,2013-02-03 05:10:00,
2013-02-03 00:16:00,27.3,13.3,30.00,South,188,3.8,7.4,55,0.00,n/a,n/a,-99.99,Henriksen +1-Wire,2013-02-03 05:16:00,
2013-02-03 00:22:00,27.1,13.5,30.00,South,180,4.9,7.9,56,0.00,n/a,n/a,-99.99,Henriksen +1-Wire,2013-02-03 05:22:00,
2013-02-03 00:28:00,25.7,13.0,30.00,South,188,4.3,9.7,58,0.00,n/a,n/a,-99.99,Henriksen +1-Wire,2013-02-03 05:28:00,
2013-02-03 00:34:00,25.0,13.0,30.00,WSW,251,2.5,9.5,59,0.00,n/a,n/a,-99.99,Henriksen +1-Wire,2013-02-03 05:34:00,
2013-02-03 00:40:00,24.9,13.1,30.00,SSW,199,3.6,6.9,60,0.00,n/a,n/a,-99.99,Henriksen +1-Wire,2013-02-03 05:40:00,
2013-02-03 00:46:00,24.7,13.1,29.99,SSW,206,3.1,6.9,60,0.00,n/a,n/a,-99.99,Henriksen +1-Wire,2013-02-03 05:46:00,
2013-02-03 00:52:00,24.6,13.1,29.99,SSW,203,3.2,6.6,61,0.00,n/a,n/a,-99.99,Henriksen +1-Wire,2013-02-03 05:52:00,
2013-02-03 00:58:00,24.6,13.2,29.99,SSW,199,3.7,7.8,61,0.00,n/a,n/a,-99.99,Henriksen +1-Wire,2013-02-03 05:58:00,
2013-02-03 01:04:00,24.6,13.3,29.99,SSW,193,3.3,6.9,61,0.00,n/a,n/a,-99.99,Henriksen +1-Wire,2013-02-03 06:04:00,
2013-02-03 01:10:00,24.7,8.6,29.99,SSW,193,2.3,6.4,50,0.00,n/a,n/a,-99.99,Henriksen +1-Wire,2013-02-03 06:10:00,
2013-02-03 13:12:00,25.0,20.0,29.78,NW,316,3.9,5.4,81,0.00,n/a,n/a,-99.99,Henriksen +1-Wire,2013-02-03 18:12:00,
2013-02-03 13:18:00,24.7,19.7,29.78,NW,314,2.8,5.2,80,0.00,n/a,n/a,-99.99,Henriksen +1-Wire,2013-02-03 18:18:00,
2013-02-03 13:24:00,24.8,19.7,29.78,NW,307,4.8,7.9,80,0.00,n/a,n/a,-99.99,Henriksen +1-Wire,2013-02-03 18:24:00,
2013-02-03 13:30:00,25.0,19.9,29.78,WNW,303,2.9,7.9,80,0.00,n/a,n/a,-99.99,Henriksen +1-Wire,2013-02-03 18:30:00,
2013-02-03 13:36:00,25.9,20.5,29.78,WNW,297,3.2,6.5,79,0.00,n/a,n/a,-99.99,Henriksen +1-Wire,2013-02-03 18:36:00,
2013-02-03 13:42:00,25.3,20.0,29.77,NW,309,2.4,6.5,79,0.00,n/a,n/a,-99.99,Henriksen +1-Wire,2013-02-03 18:42:00,
2013-02-03 13:48:00,25.8,20.4,29.77,NW,311,2.9,6.1,79,0.00,n/a,n/a,-99.99,Henriksen +1-Wire,2013-02-03 18:48:00,
2013-02-03 13:54:00,26.5,21.1,29.76,WNW,300,3.0,5.5,79,0.00,n/a,n/a,-99.99,Henriksen +1-Wire,2013-02-03 18:54:00,
2013-02-03 14:00:00,26.9,21.6,29.77,NW,308,2.5,5.5,80,0.00,n/a,n/a,-99.99,Henriksen +1-Wire,2013-02-03 19:00:00,
2013-02-03 14:06:00,27.1,21.8,29.76,NW,307,2.9,4.0,80,0.00,n/a,n/a,-99.99,Henriksen +1-Wire,2013-02-03 19:06:00,
2013-02-03 14:12:00,27.3,21.9,29.76,WNW,302,3.0,4.0,79,0.00,n/a,n/a,-99.99,Henriksen +1-Wire,2013-02-03 19:12:00,
2013-02-03 14:18:00,27.3,21.8,29.76,NW,305,3.1,5.9,79,0.00,n/a,n/a,-99.99,Henriksen +1-Wire,2013-02-03 19:18:00,
2013-02-03 14:24:00,27.2,21.8,29.76,WNW,298,2.5,5.9,79,0.00,n/a,n/a,-99.99,Henriksen +1-Wire,2013-02-03 19:24:00,
2013-02-03 14:30:00,27.6,22.2,29.76,WNW,298,2.3,5.9,80,0.00,n/a,n/a,-99.99,Henriksen +1-Wire,2013-02-03 19:30:00,
2013-02-03 14:36:00,27.6,22.1,29.76,NW,308,2.0,5.2,79,0.00,n/a,n/a,-99.99,Henriksen +1-Wire,2013-02-03 19:36:00,
2013-02-03 14:42:00,27.6,22.0,29.75,WNW,284,2.2,5.3,79,0.00,n/a,n/a,-99.99,Henriksen +1-Wire,2013-02-03 19:42:00,
2013-02-03 14:48:00,27.5,21.9,29.76,WNW,293,3.5,6.0,79,0.00,n/a,n/a,-99.99,Henriksen +1-Wire,2013-02-03 19:48:00,
2013-02-03 14:54:00,27.4,21.8,29.75,NW,306,3.2,6.0,79,0.00,n/a,n/a,-99.99,Henriksen +1-Wire,2013-02-03 19:54:00,
2013-02-03 15:00:00,27.4,22.0,29.75,NW,307,1.5,6.5,79,0.00,n/a,n/a,-99.99,Henriksen +1-Wire,2013-02-03 20:00:00,
2013-02-03 15:06:00,27.4,22.1,29.75,NW,308,2.2,5.3,80,0.00,n/a,n/a,-99.99,Henriksen +1-Wire,2013-02-03 20:06:00,
2013-02-03 15:12:00,27.4,22.0,29.75,NW,309,3.1,5.3,80,0.00,n/a,n/a,-99.99,Henriksen +1-Wire,2013-02-03 20:12:00,
2013-02-03 15:18:00,27.4,22.2,29.76,NW,315,1.8,5.2,80,0.00,n/a,n/a,-99.99,Henriksen +1-Wire,2013-02-03 20:18:00,
2013-02-03 15:24:00,27.4,22.2,29.75,NW,305,2.8,4.4,80,0.00,n/a,n/a,-99.99,Henriksen +1-Wire,2013-02-03 20:24:00,
2013-02-03 15:30:00,27.4,22.3,29.75,NW,312,1.7,4.4,80,0.00,n/a,n/a,-99.99,Henriksen +1-Wire,2013-02-03 20:30:00,
2013-02-03 15:36:00,27.4,22.2,29.75,NW,319,1.6,5.3,80,0.00,n/a,n/a,-99.99,Henriksen +1-Wire,2013-02-03 20:36:00,
2013-02-03 15:42:00,27.4,22.1,29.75,NW,309,2.3,5.3,80,0.00,n/a,n/a,-99.99,Henriksen +1-Wire,2013-02-03 20:42:00,
2013-02-03 15:48:00,27.3,21.9,29.74,NW,316,2.8,6.0,79,0.00,n/a,n/a,-99.99,Henriksen +1-Wire,2013-02-03 20:48:00,
2013-02-03 15:54:00,27.3,22.0,29.74,NW,319,2.9,6.0,80,0.00,n/a,n/a,-99.99,Henriksen +1-Wire,2013-02-03 20:54:00,
2013-02-03 16:00:00,27.4,22.2,29.74,NW,306,1.3,5.0,80,0.00,n/a,n/a,-99.99,Henriksen +1-Wire,2013-02-03 21:00:00,
2013-02-03 16:06:00,27.4,22.4,29.74,WNW,294,1.1,3.3,81,0.00,n/a,n/a,-99.99,Henriksen +1-Wire,2013-02-03 21:06:00,
2013-02-03 16:12:00,27.3,22.4,29.74,NW,307,2.0,3.9,81,0.00,n/a,n/a,-99.99,Henriksen +1-Wire,2013-02-03 21:12:00,
2013-02-03 16:18:00,27.2,22.3,29.74,NW,309,3.6,5.0,81,0.00,n/a,n/a,-99.99,Henriksen +1-Wire,2013-02-03 21:18:00,
2013-02-03 16:24:00,27.1,22.1,29.74,NW,321,2.2,5.0,81,0.00,n/a,n/a,-99.99,Henriksen +1-Wire,2013-02-03 21:24:00,
2013-02-03 16:30:00,27.1,22.1,29.74,NW,317,3.4,4.7,81,0.00,n/a,n/a,-99.99,Henriksen +1-Wire,2013-02-03 21:30:00,
2013-02-03 16:36:00,27.1,22.2,29.74,NW,320,1.9,5.0,81,0.00,n/a,n/a,-99.99,Henriksen +1-Wire,2013-02-03 21:36:00,
2013-02-03 16:42:00,25.9,21.2,29.73,NNW,333,2.7,6.3,82,0.00,n/a,n/a,-99.99,Henriksen +1-Wire,2013-02-03 21:42:00,
2013-02-03 16:48:00,25.2,20.7,29.73,NW,321,1.9,6.3,82,0.00,n/a,n/a,-99.99,Henriksen +1-Wire,2013-02-03 21:48:00,
2013-02-03 16:54:00,25.0,20.6,29.73,NW,321,2.6,6.0,83,0.00,n/a,n/a,-99.99,Henriksen +1-Wire,2013-02-03 21:54:00,
2013-02-03 17:00:00,24.8,20.7,29.72,NW,320,2.1,6.0,84,0.00,n/a,n/a,-99.99,Henriksen +1-Wire,2013-02-03 22:00:00,
2013-02-03 17:06:00,24.8,20.7,29.72,NW,325,2.0,3.5,84,0.00,n/a,n/a,-99.99,Henriksen +1-Wire,2013-02-03 22:06:00,
2013-02-03 17:12:00,24.8,20.9,29.72,NW,319,0.8,3.3,84,0.00,n/a,n/a,-99.99,Henriksen +1-Wire,2013-02-03 22:12:00,
2013-02-03 17:18:00,24.7,20.8,29.72,NNW,329,2.2,4.4,85,0.00,n/a,n/a,-99.99,Henriksen +1-Wire,2013-02-03 22:18:00,
2013-02-03 17:24:00,24.6,20.8,29.72,NW,325,1.9,4.4,85,0.00,n/a,n/a,-99.99,Henriksen +1-Wire,2013-02-03 22:24:00,
2013-02-03 17:30:00,24.6,20.8,29.72,NW,318,2.0,3.8,85,0.00,n/a,n/a,-99.99,Henriksen +1-Wire,2013-02-03 22:30:00,
2013-02-03 17:36:00,24.6,20.8,29.72,NW,317,1.7,3.7,85,0.00,n/a,n/a,-99.99,Henriksen +1-Wire,2013-02-03 22:36:00,
2013-02-03 17:42:00,24.6,20.7,29.72,NW,320,2.6,4.7,85,0.00,n/a,n/a,-99.99,Henriksen +1-Wire,2013-02-03 22:42:00,
2013-02-03 17:48:00,24.6,20.7,29.72,NW,319,2.3,3.6,85,0.00,n/a,n/a,-99.99,Henriksen +1-Wire,2013-02-03 22:48:00,
2013-02-03 17:54:00,24.6,20.7,29.72,NW,320,1.5,5.0,85,0.00,n/a,n/a,-99.99,Henriksen +1-Wire,2013-02-03 22:54:00,
2013-02-03 18:00:00,24.6,20.8,29.72,NW,313,2.3,5.0,85,0.00,n/a,n/a,-99.99,Henriksen +1-Wire,2013-02-03 23:00:00,
2013-02-03 18:06:00,24.6,20.9,29.72,WNW,296,1.0,3.7,85,0.00,n/a,n/a,-99.99,Henriksen +1-Wire,2013-02-03 23:06:00,
2013-02-03 18:12:00,24.6,20.9,29.72,NW,318,1.8,3.1,85,0.00,n/a,n/a,-99.99,Henriksen +1-Wire,2013-02-03 23:12:00,
2013-02-03 18:18:00,24.5,20.9,29.72,NW,320,1.0,3.8,85,0.00,n/a,n/a,-99.99,Henriksen +1-Wire,2013-02-03 23:18:00,
2013-02-03 18:24:00,24.6,20.9,29.72,WNW,297,1.7,2.8,85,0.00,n/a,n/a,-99.99,Henriksen +1-Wire,2013-02-03 23:24:00,
2013-02-03 18:30:00,24.6,21.0,29.73,NW,318,0.3,2.8,86,0.00,n/a,n/a,-99.99,Henriksen +1-Wire,2013-02-03 23:30:00,
2013-02-03 18:36:00,24.5,20.9,29.72,NW,324,0.2,2.5,86,0.00,n/a,n/a,-99.99,Henriksen +1-Wire,2013-02-03 23:36:00,
2013-02-03 18:42:00,25.5,21.8,29.73,NW,323,0.2,3.8,85,0.00,n/a,n/a,-99.99,Henriksen +1-Wire,2013-02-03 23:42:00,
2013-02-03 18:48:00,25.7,22.0,29.73,NW,324,1.7,5.3,85,0.00,n/a,n/a,-99.99,Henriksen +1-Wire,2013-02-03 23:48:00,
2013-02-03 18:54:00,25.9,22.1,29.73,NW,313,1.6,4.2,85,0.00,n/a,n/a,-99.99,Henriksen +1-Wire,2013-02-03 23:54:00,
2013-02-03 19:00:00,26.0,22.0,29.73,NW,317,0.7,4.1,84,0.00,n/a,n/a,-99.99,Henriksen +1-Wire,2013-02-04 00:00:00,
2013-02-03 19:06:00,25.9,21.9,29.73,NW,315,1.6,4.0,84,0.00,n/a,n/a,-99.99,Henriksen +1-Wire,2013-02-04 00:06:00,
2013-02-03 19:12:00,25.9,21.7,29.73,NNW,329,2.0,5.5,83,0.00,n/a,n/a,-99.99,Henriksen +1-Wire,2013-02-04 00:12:00,
2013-02-03 19:18:00,25.9,21.6,29.73,WNW,294,0.6,4.4,83,0.00,n/a,n/a,-99.99,Henriksen +1-Wire,2013-02-04 00:18:00,
2013-02-03 19:24:00,25.8,21.5,29.74,WNW,297,2.1,3.5,83,0.00,n/a,n/a,-99.99,Henriksen +1-Wire,2013-02-04 00:24:00,
2013-02-03 19:30:00,25.8,21.4,29.73,WNW,298,0.4,3.5,83,0.00,n/a,n/a,-99.99,Henriksen +1-Wire,2013-02-04 00:30:00,
2013-02-03 19:36:00,25.8,21.4,29.74,NW,305,1.2,2.8,83,0.00,n/a,n/a,-99.99,Henriksen +1-Wire,2013-02-04 00:36:00,
2013-02-03 19:42:00,25.8,21.3,29.73,WNW,295,0.2,2.8,82,0.00,n/a,n/a,-99.99,Henriksen +1-Wire,2013-02-04 00:42:00,
2013-02-03 19:48:00,25.7,21.3,29.73,WNW,291,1.3,3.1,83,0.00,n/a,n/a,-99.99,Henriksen +1-Wire,2013-02-04 00:48:00,
2013-02-03 19:54:00,25.7,21.2,29.72,WNW,296,1.3,3.1,82,0.00,n/a,n/a,-99.99,Henriksen +1-Wire,2013-02-04 00:54:00,
2013-02-03 20:00:00,25.7,21.2,29.72,WNW,296,1.8,3.1,82,0.00,n/a,n/a,-99.99,Henriksen +1-Wire,2013-02-04 01:00:00,
2013-02-03 20:06:00,25.7,21.1,29.72,NW,308,1.7,3.1,82,0.00,n/a,n/a,-99.99,Henriksen +1-Wire,2013-02-04 01:06:00,
2013-02-03 20:12:00,25.7,21.1,29.72,WNW,301,1.4,2.8,82,0.00,n/a,n/a,-99.99,Henriksen +1-Wire,2013-02-04 01:12:00,
2013-02-03 20:18:00,25.7,21.0,29.71,NW,314,0.8,2.8,82,0.00,n/a,n/a,-99.99,Henriksen +1-Wire,2013-02-04 01:18:00,
2013-02-03 20:24:00,25.7,21.1,29.71,WNW,290,1.3,2.8,82,0.00,n/a,n/a,-99.99,Henriksen +1-Wire,2013-02-04 01:24:00,
2013-02-03 20:30:00,25.7,21.1,29.71,WNW,303,1.0,3.1,82,0.00,n/a,n/a,-99.99,Henriksen +1-Wire,2013-02-04 01:30:00,
2013-02-03 20:36:00,25.7,21.0,29.71,WNW,303,1.8,4.5,82,0.00,n/a,n/a,-99.99,Henriksen +1-Wire,2013-02-04 01:36:00,
2013-02-03 20:42:00,25.6,21.0,29.71,West,266,1.3,4.4,82,0.00,n/a,n/a,-99.99,Henriksen +1-Wire,2013-02-04 01:42:00,
2013-02-03 20:48:00,25.7,21.0,29.71,West,263,1.8,3.0,82,0.00,n/a,n/a,-99.99,Henriksen +1-Wire,2013-02-04 01:48:00,
2013-02-03 20:54:00,25.7,20.9,29.71,WNW,290,1.2,4.8,81,0.00,n/a,n/a,-99.99,Henriksen +1-Wire,2013-02-04 01:54:00,
2013-02-03 21:00:00,25.7,20.8,29.71,WNW,289,1.1,4.8,81,0.00,n/a,n/a,-99.99,Henriksen +1-Wire,2013-02-04 02:00:00,
2013-02-03 21:06:00,25.7,20.7,29.71,WNW,300,2.3,4.0,81,0.00,n/a,n/a,-99.99,Henriksen +1-Wire,2013-02-04 02:06:00,
2013-02-03 21:12:00,25.7,20.7,29.71,NW,313,2.1,4.1,81,0.00,n/a,n/a,-99.99,Henriksen +1-Wire,2013-02-04 02:12:00,
2013-02-03 21:18:00,25.7,20.6,29.71,West,265,0.8,4.1,80,0.00,n/a,n/a,-99.99,Henriksen +1-Wire,2013-02-04 02:18:00,
2013-02-03 21:24:00,25.7,20.6,29.70,SW,233,1.4,3.8,80,0.00,n/a,n/a,-99.99,Henriksen +1-Wire,2013-02-04 02:24:00,
2013-02-03 21:30:00,25.8,20.4,29.70,WSW,246,0.7,3.1,80,0.00,n/a,n/a,-99.99,Henriksen +1-Wire,2013-02-04 02:30:00,
2013-02-03 21:36:00,25.7,20.4,29.70,NW,311,1.1,3.4,79,0.00,n/a,n/a,-99.99,Henriksen +1-Wire,2013-02-04 02:36:00,
2013-02-03 21:42:00,25.7,20.1,29.70,WNW,296,2.4,5.1,79,0.00,n/a,n/a,-99.99,Henriksen +1-Wire,2013-02-04 02:42:00,
2013-02-03 21:48:00,25.8,20.1,29.70,NW,318,1.2,5.0,78,0.00,n/a,n/a,-99.99,Henriksen +1-Wire,2013-02-04 02:48:00,
2013-02-03 21:54:00,25.8,19.9,29.70,WNW,289,2.6,4.5,78,0.00,n/a,n/a,-99.99,Henriksen +1-Wire,2013-02-04 02:54:00,
2013-02-03 22:00:00,25.8,19.8,29.69,WNW,294,1.4,4.5,77,0.00,n/a,n/a,-99.99,Henriksen +1-Wire,2013-02-04 03:00:00,
2013-02-03 22:06:00,25.8,19.7,29.69,NW,309,0.8,4.4,77,0.00,n/a,n/a,-99.99,Henriksen +1-Wire,2013-02-04 03:06:00,
2013-02-03 22:12:00,25.8,19.7,29.69,WNW,295,2.1,4.4,77,0.00,n/a,n/a,-99.99,Henriksen +1-Wire,2013-02-04 03:12:00,
2013-02-03 22:18:00,25.7,19.7,29.69,West,281,0.5,3.1,77,0.00,n/a,n/a,-99.99,Henriksen +1-Wire,2013-02-04 03:18:00,
2013-02-03 22:24:00,25.8,20.0,29.69,SSW,209,0.8,1.9,78,0.00,n/a,n/a,-99.99,Henriksen +1-Wire,2013-02-04 03:24:00,
2013-02-03 22:30:00,25.7,20.0,29.69,SSW,201,1.0,2.8,78,0.00,n/a,n/a,-99.99,Henriksen +1-Wire,2013-02-04 03:30:00,
2013-02-03 22:36:00,25.7,19.9,29.69,WNW,287,1.0,2.8,78,0.00,n/a,n/a,-99.99,Henriksen +1-Wire,2013-02-04 03:36:00,
2013-02-03 22:42:00,25.7,20.0,29.69,West,278,1.5,2.8,78,0.00,n/a,n/a,-99.99,Henriksen +1-Wire,2013-02-04 03:42:00,
2013-02-03 22:48:00,25.6,20.0,29.69,WNW,292,1.5,4.0,79,0.00,n/a,n/a,-99.99,Henriksen +1-Wire,2013-02-04 03:48:00,
2013-02-03 22:54:00,25.6,20.1,29.69,SSE,161,1.5,4.0,79,0.00,n/a,n/a,-99.99,Henriksen +1-Wire,2013-02-04 03:54:00,
2013-02-03 23:00:00,25.7,20.0,29.69,WNW,293,1.4,5.6,79,0.00,n/a,n/a,-99.99,Henriksen +1-Wire,2013-02-04 04:00:00,
2013-02-03 23:06:00,25.7,20.1,29.68,WNW,295,1.1,5.6,79,0.00,n/a,n/a,-99.99,Henriksen +1-Wire,2013-02-04 04:06:00,
2013-02-03 23:12:00,25.7,20.1,29.68,NW,322,2.0,3.7,79,0.00,n/a,n/a,-99.99,Henriksen +1-Wire,2013-02-04 04:12:00,
2013-02-03 23:18:00,25.7,20.2,29.68,NNW,329,1.4,3.7,79,0.00,n/a,n/a,-99.99,Henriksen +1-Wire,2013-02-04 04:18:00,
2013-02-03 23:24:00,25.6,20.2,29.69,WSW,247,1.1,2.5,79,0.00,n/a,n/a,-99.99,Henriksen +1-Wire,2013-02-04 04:24:00,
2013-02-03 23:30:00,25.6,20.2,29.69,WSW,245,0.4,1.9,80,0.00,n/a,n/a,-99.99,Henriksen +1-Wire,2013-02-04 04:30:00,
2013-02-03 23:36:00,25.2,20.1,29.69,SSW,211,1.2,1.8,80,0.00,n/a,n/a,-99.99,Henriksen +1-Wire,2013-02-04 04:36:00,
2013-02-03 23:42:00,23.8,18.9,29.69,SSW,200,1.6,2.2,81,0.00,n/a,n/a,-99.99,Henriksen +1-Wire,2013-02-04 04:42:00,
2013-02-03 23:48:00,23.4,18.7,29.69,SSW,210,0.9,2.2,82,0.00,n/a,n/a,-99.99,Henriksen +1-Wire,2013-02-04 04:48:00,
2013-02-03 23:54:00,23.7,19.2,29.68,SSW,199,1.3,2.2,82,0.00,n/a,n/a,-99.99,Henriksen +1-Wire,2013-02-04 04:54:00,